createdAt,value
2019-03-28T00:01:07.879Z,10.37
2019-03-28T00:03:35.853Z,11.40
2019-03-28T00:06:04.009Z,10.67
2019-03-28T00:08:31.908Z,11.07
2019-03-28T00:11:00.241Z,11.63
2019-03-28T00:13:28.530Z,11.23
2019-03-28T00:15:56.984Z,9.67
2019-03-28T00:18:33.815Z,14.47
2019-03-28T00:21:32.233Z,10.97
2019-03-28T00:24:09.136Z,9.43
2019-03-28T00:26:37.511Z,11.10
2019-03-28T00:29:05.267Z,13.80
2019-03-28T00:31:32.932Z,11.40
2019-03-28T00:34:00.915Z,10.47
2019-03-28T00:36:29.436Z,11.27
2019-03-28T00:38:57.730Z,11.13
2019-03-28T00:41:25.755Z,10.50
2019-03-28T00:43:54.245Z,14.10
2019-03-28T00:46:22.432Z,12.13
2019-03-28T00:48:50.911Z,11.17
2019-03-28T00:51:19.644Z,14.03
2019-03-28T00:53:48.018Z,13.53
2019-03-28T00:56:16.302Z,14.93
2019-03-28T00:58:47.208Z,13.43
2019-03-28T01:01:23.631Z,11.70
2019-03-28T01:03:52.350Z,10.13
2019-03-28T01:06:20.447Z,10.57
2019-03-28T01:08:48.738Z,8.60
2019-03-28T01:11:17.381Z,9.20
2019-03-28T01:13:45.675Z,7.73
2019-03-28T01:16:14.256Z,9.17
2019-03-28T01:18:42.318Z,12.90
2019-03-28T01:21:10.374Z,12.77
2019-03-28T01:23:38.223Z,10.07
2019-03-28T01:26:06.236Z,8.80
2019-03-28T01:28:34.266Z,9.60
2019-03-28T01:31:02.714Z,13.30
2019-03-28T01:33:31.486Z,12.80
2019-03-28T01:35:59.351Z,9.33
2019-03-28T01:38:27.967Z,8.23
2019-03-28T01:40:56.694Z,9.47
2019-03-28T01:43:24.466Z,7.83
2019-03-28T01:45:52.226Z,10.13
2019-03-28T01:48:20.037Z,9.77
2019-03-28T01:50:48.271Z,11.10
2019-03-28T01:53:16.278Z,9.83
2019-03-28T01:55:44.195Z,11.50
2019-03-28T01:58:11.988Z,9.10
2019-03-28T02:00:39.714Z,10.17
2019-03-28T02:03:07.563Z,7.53
2019-03-28T02:05:35.315Z,7.67
2019-03-28T02:08:04.170Z,8.23
2019-03-28T02:10:32.034Z,12.87
2019-03-28T02:13:00.290Z,8.97
2019-03-28T02:15:28.730Z,7.63
2019-03-28T02:18:03.487Z,11.53
2019-03-28T02:20:33.989Z,10.20
2019-03-28T02:23:02.598Z,10.87
2019-03-28T02:25:35.495Z,9.63
2019-03-28T02:28:04.960Z,7.67
2019-03-28T02:30:52.596Z,9.10
2019-03-28T02:33:26.548Z,8.43
2019-03-28T02:35:55.116Z,7.23
2019-03-28T02:38:28.574Z,9.27
2019-03-28T02:40:59.062Z,7.47
2019-03-28T02:43:27.737Z,8.23
2019-03-28T02:45:56.594Z,9.37
2019-03-28T02:48:25.732Z,11.60
2019-03-28T02:50:54.561Z,9.03
2019-03-28T02:53:22.235Z,7.50
2019-03-28T02:55:50.280Z,7.57
2019-03-28T02:58:19.946Z,7.60
2019-03-28T03:00:48.135Z,9.83
2019-03-28T03:03:16.749Z,8.40
2019-03-28T03:05:44.758Z,7.13
2019-03-28T03:08:12.666Z,11.10
2019-03-28T03:10:40.418Z,6.70
2019-03-28T03:13:08.236Z,7.90
2019-03-28T03:15:35.929Z,8.93
2019-03-28T03:18:03.704Z,7.17
2019-03-28T03:20:31.695Z,10.83
2019-03-28T03:22:59.825Z,10.80
2019-03-28T03:25:27.973Z,8.73
2019-03-28T03:27:58.905Z,8.53
2019-03-28T03:30:26.020Z,6.77
2019-03-28T03:32:53.728Z,8.33
2019-03-28T03:35:21.900Z,8.80
2019-03-28T03:37:49.543Z,8.03
2019-03-28T03:40:17.453Z,10.07
2019-03-28T03:42:45.307Z,11.43
2019-03-28T03:45:13.426Z,7.70
2019-03-28T03:47:41.138Z,8.20
2019-03-28T03:50:09.185Z,9.67
2019-03-28T03:52:36.919Z,10.80
2019-03-28T03:55:04.774Z,8.67
2019-03-28T03:57:32.474Z,12.70
2019-03-28T04:00:00.598Z,9.83
2019-03-28T04:02:28.415Z,8.83
2019-03-28T04:04:56.948Z,10.03
2019-03-28T04:07:24.899Z,13.17
2019-03-28T04:09:52.642Z,11.83
2019-03-28T04:12:20.407Z,9.10
2019-03-28T04:14:48.160Z,10.90
2019-03-28T04:17:16.055Z,12.47
2019-03-28T04:19:44.195Z,11.87
2019-03-28T04:22:12.056Z,11.33
2019-03-28T04:24:39.740Z,12.33
2019-03-28T04:27:07.996Z,10.67
2019-03-28T04:29:35.741Z,9.93
2019-03-28T04:32:03.566Z,11.80
2019-03-28T04:34:31.312Z,11.00
2019-03-28T04:36:59.013Z,9.13
2019-03-28T04:39:26.487Z,13.13
2019-03-28T04:41:54.314Z,12.50
2019-03-28T04:44:21.920Z,12.37
2019-03-28T04:46:49.425Z,10.60
2019-03-28T04:49:16.892Z,11.60
2019-03-28T04:51:44.458Z,9.80
2019-03-28T04:54:11.926Z,10.80
2019-03-28T04:56:39.350Z,12.83
2019-03-28T04:59:06.899Z,9.03
2019-03-28T05:01:34.553Z,11.80
2019-03-28T05:04:02.227Z,11.33
2019-03-28T05:06:30.030Z,11.83
2019-03-28T05:08:57.894Z,10.57
2019-03-28T05:11:25.561Z,10.30
2019-03-28T05:13:53.425Z,8.07
2019-03-28T05:16:21.246Z,10.50
2019-03-28T05:18:49.145Z,10.43
2019-03-28T05:21:17.270Z,10.33
2019-03-28T05:23:44.961Z,11.70
2019-03-28T05:26:12.939Z,11.97
2019-03-28T05:28:40.826Z,9.87
2019-03-28T05:31:08.609Z,13.37
2019-03-28T05:33:36.586Z,12.10
2019-03-28T05:36:04.679Z,13.33
2019-03-28T05:38:32.537Z,11.17
2019-03-28T05:41:00.242Z,12.73
2019-03-28T05:43:28.066Z,11.50
2019-03-28T05:45:55.760Z,14.30
2019-03-28T05:48:23.822Z,10.97
2019-03-28T05:50:52.021Z,11.77
2019-03-28T05:53:20.532Z,14.10
2019-03-28T05:55:48.476Z,15.33
2019-03-28T05:58:17.581Z,18.00
2019-03-28T06:00:45.494Z,13.83
2019-03-28T06:03:13.145Z,11.70
2019-03-28T06:05:41.135Z,12.17
2019-03-28T06:08:08.913Z,14.57
2019-03-28T06:10:36.733Z,15.70
2019-03-28T06:13:04.574Z,14.47
2019-03-28T06:15:32.315Z,13.93
2019-03-28T06:18:00.200Z,13.13
2019-03-28T06:20:27.967Z,15.07
2019-03-28T06:22:55.907Z,14.40
2019-03-28T06:25:23.800Z,16.83
2019-03-28T06:27:51.945Z,13.57
2019-03-28T06:30:19.931Z,16.73
2019-03-28T06:32:47.627Z,15.23
2019-03-28T06:35:15.521Z,14.63
2019-03-28T06:37:43.260Z,13.20
2019-03-28T06:40:11.221Z,19.20
2019-03-28T06:42:39.083Z,18.07
2019-03-28T06:45:07.936Z,19.20
2019-03-28T06:47:36.903Z,14.33
2019-03-28T06:50:05.995Z,13.67
2019-03-28T06:52:33.922Z,15.37
2019-03-28T06:55:02.864Z,13.77
2019-03-28T06:57:30.858Z,15.17
2019-03-28T06:59:58.707Z,14.10
2019-03-28T07:02:26.725Z,16.20
2019-03-28T07:04:54.526Z,15.50
2019-03-28T07:07:22.691Z,15.93
2019-03-28T07:09:50.640Z,15.03
2019-03-28T07:12:18.476Z,14.70
2019-03-28T07:14:46.456Z,13.57
2019-03-28T07:17:14.287Z,17.97
2019-03-28T07:19:42.127Z,13.97
2019-03-28T07:22:10.353Z,16.37
2019-03-28T07:24:38.399Z,14.17
2019-03-28T07:27:06.177Z,13.47
2019-03-28T07:29:34.019Z,17.73
2019-03-28T07:32:02.035Z,15.43
2019-03-28T07:34:29.801Z,15.67
2019-03-28T07:36:58.729Z,15.33
2019-03-28T07:39:26.298Z,13.43
2019-03-28T07:41:54.142Z,18.07
2019-03-28T07:44:22.482Z,17.97
2019-03-28T07:46:50.352Z,16.40
2019-03-28T07:49:18.330Z,19.60
2019-03-28T07:51:46.276Z,18.90
2019-03-28T07:54:14.580Z,15.50
2019-03-28T07:56:42.456Z,14.33
2019-03-28T07:59:10.354Z,17.30
2019-03-28T08:01:38.401Z,15.73
2019-03-28T08:04:06.207Z,15.47
2019-03-28T08:06:34.131Z,17.13
2019-03-28T08:09:02.162Z,14.00
2019-03-28T08:11:30.974Z,17.80
2019-03-28T08:13:58.910Z,15.40
2019-03-28T08:16:28.821Z,16.77
2019-03-28T08:18:56.474Z,17.33
2019-03-28T08:21:24.590Z,17.30
2019-03-28T08:23:52.552Z,19.67
2019-03-28T08:26:20.525Z,18.93
2019-03-28T08:28:48.465Z,14.57
2019-03-28T08:31:16.274Z,18.87
2019-03-28T08:33:44.346Z,17.57
2019-03-28T08:36:14.229Z,19.37
2019-03-28T08:38:44.298Z,21.83
2019-03-28T08:41:12.182Z,23.03
2019-03-28T08:43:39.883Z,18.40
2019-03-28T08:46:08.900Z,23.37
2019-03-28T08:48:37.283Z,22.57
2019-03-28T08:51:05.191Z,24.17
2019-03-28T08:53:33.058Z,25.00
2019-03-28T08:56:01.074Z,23.53
2019-03-28T08:58:30.007Z,20.47
2019-03-28T09:00:57.946Z,21.07
2019-03-28T09:03:25.782Z,25.80
2019-03-28T09:05:53.611Z,23.70
2019-03-28T09:08:21.529Z,21.00
2019-03-28T09:10:49.383Z,22.33
2019-03-28T09:13:29.053Z,22.87
2019-03-28T09:15:57.065Z,20.87
2019-03-28T09:18:30.687Z,20.80
2019-03-28T09:20:58.553Z,23.83
2019-03-28T09:23:26.458Z,23.13
2019-03-28T09:25:54.255Z,26.27
2019-03-28T09:28:21.962Z,22.73
2019-03-28T09:30:49.916Z,20.33
2019-03-28T09:33:17.908Z,22.27
2019-03-28T09:35:45.992Z,22.10
2019-03-28T09:38:14.014Z,21.50
2019-03-28T09:40:41.877Z,19.67
2019-03-28T09:43:10.839Z,19.27
2019-03-28T09:45:38.759Z,17.03
2019-03-28T09:48:06.570Z,20.23
2019-03-28T09:50:34.351Z,22.17
2019-03-28T09:53:02.164Z,14.33
2019-03-28T09:55:29.923Z,17.63
2019-03-28T09:57:57.649Z,16.87
2019-03-28T10:00:25.442Z,15.20
2019-03-28T10:02:53.298Z,14.80
2019-03-28T10:05:21.237Z,15.20
2019-03-28T10:07:49.128Z,14.07
2019-03-28T10:10:17.040Z,10.97
2019-03-28T10:12:44.895Z,18.83
2019-03-28T10:15:12.902Z,14.57
2019-03-28T10:17:42.476Z,13.03
2019-03-28T10:20:10.679Z,13.07
2019-03-28T10:22:38.491Z,11.33
2019-03-28T10:25:06.834Z,12.73
2019-03-28T10:27:34.574Z,13.20
2019-03-28T10:30:02.956Z,12.70
2019-03-28T10:32:32.359Z,12.73
2019-03-28T10:35:00.570Z,15.27
2019-03-28T10:37:28.345Z,16.40
2019-03-28T10:39:55.901Z,12.13
2019-03-28T10:42:23.431Z,8.33
2019-03-28T10:44:51.008Z,6.83
2019-03-28T10:47:18.673Z,8.77
2019-03-28T10:49:46.233Z,6.60
2019-03-28T10:52:13.729Z,11.87
2019-03-28T10:54:41.196Z,10.77
2019-03-28T10:57:15.584Z,15.37
2019-03-28T10:59:38.254Z,14.13
2019-03-28T11:02:06.240Z,13.13
2019-03-28T11:04:33.825Z,14.17
2019-03-28T11:07:01.387Z,11.93
2019-03-28T11:09:28.890Z,15.20
2019-03-28T11:11:56.556Z,11.40
2019-03-28T11:14:24.022Z,11.00
2019-03-28T11:16:51.504Z,9.20
2019-03-28T11:19:19.148Z,8.70
2019-03-28T11:21:46.750Z,9.73
2019-03-28T11:24:14.377Z,7.10
2019-03-28T11:26:42.007Z,6.00
2019-03-28T11:29:09.583Z,5.20
2019-03-28T11:31:46.313Z,8.73
2019-03-28T11:34:06.981Z,12.13
2019-03-28T11:36:34.794Z,13.03
2019-03-28T11:39:03.629Z,7.63
2019-03-28T11:41:31.192Z,8.53
2019-03-28T11:43:58.927Z,9.47
2019-03-28T11:46:26.498Z,8.33
2019-03-28T11:48:54.262Z,7.87
2019-03-28T11:51:21.826Z,9.80
2019-03-28T11:53:49.413Z,9.40
2019-03-28T11:56:17.001Z,7.73
2019-03-28T11:58:44.573Z,8.43
2019-03-28T12:01:12.204Z,9.73
2019-03-28T12:03:39.800Z,8.43
2019-03-28T12:06:07.354Z,8.80
2019-03-28T12:08:35.941Z,7.47
2019-03-28T12:11:04.698Z,7.17
2019-03-28T12:13:44.212Z,7.93
2019-03-28T12:16:01.932Z,8.00
2019-03-28T12:18:29.677Z,11.97
2019-03-28T12:20:57.269Z,8.90
2019-03-28T12:23:24.855Z,9.77
2019-03-28T12:25:52.296Z,9.27
2019-03-28T12:28:19.733Z,8.57
2019-03-28T12:30:47.202Z,12.13
2019-03-28T12:33:14.653Z,8.70
2019-03-28T12:35:42.448Z,11.50
2019-03-28T12:38:09.905Z,9.17
2019-03-28T12:40:37.382Z,9.33
2019-03-28T12:43:05.017Z,8.90
2019-03-28T12:45:32.542Z,9.37
2019-03-28T12:48:00.113Z,11.23
2019-03-28T12:50:27.681Z,11.57
2019-03-28T12:52:58.137Z,11.27
2019-03-28T12:55:24.505Z,12.20
2019-03-28T12:57:51.961Z,11.07
2019-03-28T13:00:32.594Z,9.37
2019-03-28T13:03:00.271Z,9.27
2019-03-28T13:05:27.837Z,10.47
2019-03-28T13:07:55.517Z,10.93
2019-03-28T13:10:23.098Z,9.70
2019-03-28T13:12:50.930Z,8.33
2019-03-28T13:15:18.394Z,9.30
2019-03-28T13:17:45.846Z,11.53
2019-03-28T13:20:13.421Z,10.67
2019-03-28T13:22:40.914Z,9.80
2019-03-28T13:25:09.005Z,10.17
2019-03-28T13:27:36.970Z,10.13
2019-03-28T13:30:05.095Z,10.97
2019-03-28T13:32:41.806Z,10.73
2019-03-28T13:35:02.829Z,9.60
2019-03-28T13:37:30.306Z,10.90
2019-03-28T13:39:57.793Z,9.27
2019-03-28T13:42:25.351Z,9.17
2019-03-28T13:44:53.015Z,11.87
2019-03-28T13:47:20.605Z,9.10
2019-03-28T13:49:48.084Z,9.30
2019-03-28T13:52:15.549Z,10.27
2019-03-28T13:54:43.046Z,11.70
2019-03-28T13:57:10.629Z,10.63
2019-03-28T13:59:38.178Z,8.57
2019-03-28T14:02:07.044Z,10.13
2019-03-28T14:04:34.748Z,10.10
2019-03-28T14:07:02.402Z,9.97
2019-03-28T14:09:29.870Z,9.20
2019-03-28T14:11:57.426Z,9.63
2019-03-28T14:14:24.972Z,10.80
2019-03-28T14:16:53.254Z,9.50
2019-03-28T14:19:20.839Z,9.10
2019-03-28T14:21:48.409Z,10.37
2019-03-28T14:24:15.982Z,8.13
2019-03-28T14:26:43.531Z,10.67
2019-03-28T14:29:11.158Z,9.77
2019-03-28T14:31:38.813Z,9.77
2019-03-28T14:34:06.393Z,11.50
2019-03-28T14:36:33.946Z,10.10
2019-03-28T14:39:01.435Z,11.10
2019-03-28T14:41:30.905Z,9.50
2019-03-28T14:43:58.479Z,11.67
2019-03-28T14:46:26.181Z,11.37
2019-03-28T14:48:53.951Z,8.77
2019-03-28T14:51:21.822Z,12.13
2019-03-28T14:53:49.322Z,10.90
2019-03-28T14:56:17.224Z,8.53
2019-03-28T14:58:46.884Z,9.50
2019-03-28T15:01:14.450Z,12.07
2019-03-28T15:03:41.901Z,10.57
2019-03-28T15:06:09.424Z,13.50
2019-03-28T15:08:36.891Z,9.70
2019-03-28T15:11:04.646Z,10.57
2019-03-28T15:13:32.177Z,9.47
2019-03-28T15:16:00.025Z,9.33
2019-03-28T15:18:27.711Z,9.67
2019-03-28T15:20:55.285Z,10.50
2019-03-28T15:23:22.882Z,9.27
2019-03-28T15:25:50.334Z,10.40
2019-03-28T15:28:17.884Z,10.23
2019-03-28T15:30:45.542Z,11.13
2019-03-28T15:33:13.143Z,10.83
2019-03-28T15:35:41.734Z,9.53
2019-03-28T15:38:10.208Z,10.40
2019-03-28T15:40:37.849Z,9.00
2019-03-28T15:43:05.415Z,11.10
2019-03-28T15:45:33.669Z,11.73
2019-03-28T15:48:01.365Z,12.03
2019-03-28T15:50:28.844Z,10.87
2019-03-28T15:52:57.529Z,10.40
2019-03-28T15:55:25.249Z,9.90
2019-03-28T15:57:52.793Z,9.80
2019-03-28T16:00:20.461Z,9.47
2019-03-28T16:02:47.914Z,13.07
2019-03-28T16:05:15.651Z,10.73
2019-03-28T16:07:43.239Z,9.63
2019-03-28T16:10:14.775Z,10.03
2019-03-28T16:12:42.339Z,10.13
2019-03-28T16:15:10.453Z,12.80
2019-03-28T16:17:37.930Z,9.70
2019-03-28T16:20:06.081Z,15.43
2019-03-28T16:22:33.841Z,9.77
2019-03-28T16:25:01.311Z,10.77
2019-03-28T16:27:28.893Z,10.83
2019-03-28T16:29:56.737Z,12.03
2019-03-28T16:32:24.175Z,11.53
2019-03-28T16:34:51.635Z,10.40
2019-03-28T16:37:19.476Z,10.70
2019-03-28T16:39:49.800Z,8.73
2019-03-28T16:42:16.541Z,9.20
2019-03-28T16:44:44.243Z,9.33
2019-03-28T16:47:11.881Z,10.20
2019-03-28T16:49:39.462Z,9.50
2019-03-28T16:52:07.105Z,11.17
2019-03-28T16:54:34.638Z,10.37
2019-03-28T16:57:02.395Z,11.87
2019-03-28T16:59:30.239Z,10.20
2019-03-28T17:01:57.923Z,14.13
2019-03-28T17:04:25.473Z,11.60
2019-03-28T17:06:53.301Z,9.60
2019-03-28T17:09:22.029Z,13.00
2019-03-28T17:11:50.023Z,9.93
2019-03-28T17:14:17.745Z,11.03
2019-03-28T17:16:45.327Z,9.77
2019-03-28T17:19:12.886Z,14.70
2019-03-28T17:21:40.514Z,11.37
2019-03-28T17:24:08.390Z,12.13
2019-03-28T17:26:36.406Z,15.43
2019-03-28T17:29:04.355Z,14.50
2019-03-28T17:31:32.378Z,12.27
2019-03-28T17:34:00.267Z,11.20
2019-03-28T17:36:28.257Z,11.77
2019-03-28T17:38:56.379Z,11.50
2019-03-28T17:41:24.174Z,11.53
2019-03-28T17:43:52.058Z,14.60
2019-03-28T17:46:21.242Z,14.67
2019-03-28T17:48:49.108Z,13.67
2019-03-28T17:51:21.541Z,11.97
2019-03-28T17:53:50.606Z,21.67
2019-03-28T17:56:18.850Z,23.17
2019-03-28T17:58:46.837Z,21.33
2019-03-28T18:01:15.020Z,23.17
2019-03-28T18:03:43.027Z,28.70
2019-03-28T18:06:10.931Z,25.13
2019-03-28T18:08:38.875Z,25.93
2019-03-28T18:11:06.877Z,25.27
2019-03-28T18:13:35.036Z,24.37
2019-03-28T18:16:02.964Z,27.20
2019-03-28T18:18:30.855Z,24.87
2019-03-28T18:20:58.651Z,20.77
2019-03-28T18:23:27.476Z,20.37
2019-03-28T18:25:55.395Z,19.40
2019-03-28T18:28:23.105Z,20.30
2019-03-28T18:30:51.313Z,19.53
2019-03-28T18:33:19.245Z,19.97
2019-03-28T18:35:47.282Z,21.40
2019-03-28T18:38:15.157Z,26.77
2019-03-28T18:40:43.039Z,24.07
2019-03-28T18:43:10.722Z,24.93
2019-03-28T18:45:38.633Z,25.60
2019-03-28T18:48:09.020Z,23.43
2019-03-28T18:50:36.336Z,24.13
2019-03-28T18:53:04.170Z,16.50
2019-03-28T18:55:32.014Z,17.23
2019-03-28T18:57:59.845Z,18.10
2019-03-28T19:00:27.988Z,18.10
2019-03-28T19:02:55.784Z,23.17
2019-03-28T19:05:23.593Z,25.60
2019-03-28T19:07:51.257Z,27.47
2019-03-28T19:10:19.371Z,32.60
2019-03-28T19:12:47.835Z,29.97
2019-03-28T19:15:15.953Z,28.03
2019-03-28T19:17:43.786Z,30.30
2019-03-28T19:20:11.753Z,35.77
2019-03-28T19:22:39.658Z,31.43
2019-03-28T19:25:09.917Z,32.00
2019-03-28T19:27:37.829Z,30.33
2019-03-28T19:30:06.774Z,34.57
2019-03-28T19:32:34.497Z,27.50
2019-03-28T19:35:03.359Z,32.57
2019-03-28T19:37:31.653Z,32.40
2019-03-28T19:39:59.478Z,32.63
2019-03-28T19:42:27.278Z,34.53
2019-03-28T19:44:55.221Z,34.40
2019-03-28T19:47:23.067Z,33.57
2019-03-28T19:49:50.790Z,36.23
2019-03-28T19:52:18.605Z,34.80
2019-03-28T19:54:46.436Z,39.57
2019-03-28T19:57:14.354Z,38.63
2019-03-28T19:59:42.326Z,36.30
2019-03-28T20:02:10.301Z,36.83
2019-03-28T20:04:38.038Z,36.23
2019-03-28T20:07:05.902Z,37.77
2019-03-28T20:09:33.605Z,35.80
2019-03-28T20:12:03.396Z,35.13
2019-03-28T20:14:31.081Z,36.83
2019-03-28T20:17:00.163Z,33.87
2019-03-28T20:19:28.979Z,36.30
2019-03-28T20:21:59.373Z,36.70
2019-03-28T20:24:26.478Z,35.47
2019-03-28T20:26:54.466Z,34.77
2019-03-28T20:29:22.520Z,37.03
2019-03-28T20:31:50.382Z,38.07
2019-03-28T20:34:18.152Z,37.00
2019-03-28T20:36:45.918Z,37.00
2019-03-28T20:39:13.872Z,38.73
2019-03-28T20:41:42.740Z,37.80
2019-03-28T20:44:11.756Z,40.70
2019-03-28T20:46:40.948Z,39.37
2019-03-28T20:49:08.981Z,37.50
2019-03-28T20:51:36.808Z,36.50
2019-03-28T20:54:07.637Z,37.00
2019-03-28T20:56:35.387Z,40.90
2019-03-28T20:59:03.257Z,39.17
2019-03-28T21:01:31.153Z,39.63
2019-03-28T21:03:59.019Z,39.30
2019-03-28T21:06:27.028Z,35.67
2019-03-28T21:08:55.154Z,37.93
2019-03-28T21:11:23.172Z,39.03
2019-03-28T21:13:51.118Z,36.90
2019-03-28T21:16:19.117Z,39.23
2019-03-28T21:18:47.009Z,38.70
2019-03-28T21:21:15.009Z,42.03
2019-03-28T21:23:43.941Z,36.60
2019-03-28T21:26:12.291Z,40.70
2019-03-28T21:28:47.057Z,39.23
2019-03-28T21:31:10.052Z,37.90
2019-03-28T21:33:39.142Z,41.27
2019-03-28T21:36:07.605Z,37.00
2019-03-28T21:38:35.751Z,40.37
2019-03-28T21:41:03.839Z,38.20
2019-03-28T21:43:31.883Z,40.93
2019-03-28T21:46:01.235Z,42.10
2019-03-28T21:48:29.668Z,42.17
2019-03-28T21:50:57.567Z,38.60
2019-03-28T21:53:25.363Z,38.30
2019-03-28T21:55:55.566Z,38.53
2019-03-28T21:58:22.841Z,40.30
2019-03-28T22:00:50.548Z,42.07
2019-03-28T22:03:18.250Z,42.77
2019-03-28T22:05:46.201Z,41.53
2019-03-28T22:08:14.003Z,40.67
2019-03-28T22:10:42.382Z,42.23
2019-03-28T22:13:12.333Z,41.33
2019-03-28T22:15:40.187Z,39.17
2019-03-28T22:18:08.513Z,43.07
2019-03-28T22:20:36.371Z,39.43
2019-03-28T22:23:08.851Z,38.33
2019-03-28T22:25:37.423Z,38.60
2019-03-28T22:28:05.325Z,44.50
2019-03-28T22:30:33.173Z,41.30
2019-03-28T22:33:00.907Z,39.50
2019-03-28T22:35:29.960Z,44.30
2019-03-28T22:37:57.859Z,39.90
2019-03-28T22:40:25.465Z,42.17
2019-03-28T22:42:53.013Z,36.50
2019-03-28T22:45:20.560Z,42.23
2019-03-28T22:47:48.136Z,43.77
2019-03-28T22:50:15.676Z,39.13
2019-03-28T22:52:43.124Z,39.90
2019-03-28T22:55:11.042Z,40.60
2019-03-28T22:57:38.571Z,41.73
2019-03-28T23:00:10.250Z,51.00
2019-03-28T23:02:39.803Z,46.77
2019-03-28T23:05:08.857Z,45.83
2019-03-28T23:07:36.324Z,37.67
2019-03-28T23:10:04.655Z,42.07
2019-03-28T23:12:32.216Z,44.13
2019-03-28T23:14:59.671Z,43.00
2019-03-28T23:17:27.097Z,44.77
2019-03-28T23:19:54.890Z,40.67
2019-03-28T23:22:22.438Z,41.83
2019-03-28T23:24:50.102Z,39.93
2019-03-28T23:27:17.825Z,40.67
2019-03-28T23:29:45.523Z,46.33
2019-03-28T23:32:13.199Z,41.13
2019-03-28T23:34:40.774Z,43.77
2019-03-28T23:37:08.240Z,43.80
2019-03-28T23:39:35.962Z,39.10
2019-03-28T23:42:03.410Z,43.43
2019-03-28T23:44:31.316Z,44.17
2019-03-28T23:46:59.991Z,44.70
2019-03-28T23:49:27.586Z,47.93
2019-03-28T23:51:55.102Z,44.73
2019-03-28T23:54:22.621Z,44.40
2019-03-28T23:56:50.093Z,41.23
2019-03-28T23:59:17.726Z,44.40
